sensor_id;sensor_type;location;lat;lon;timestamp;pressure;altitude;pressure_sealevel;temperature;humidity
8280;BME280;8335;42.646;23.380;2023-02-13T00:00:45;141472.59;;;-0.64;100.00
8280;BME280;8335;42.646;23.380;2023-02-13T00:03:12;141411.03;;;-0.90;100.00
8280;BME280;8335;42.646;23.380;2023-02-13T00:05:39;141481.19;;;-0.61;100.00
8280;BME280;8335;42.646;23.380;2023-02-13T00:08:05;141476.28;;;-0.63;100.00
8280;BME280;8335;42.646;23.380;2023-02-13T00:10:32;141476.28;;;-0.63;100.00
8280;BME280;8335;42.646;23.380;2023-02-13T00:12:59;141472.59;;;-0.64;100.00
8280;BME280;8335;42.646;23.380;2023-02-13T00:15:27;141472.59;;;-0.64;100.00
8280;BME280;8335;42.646;23.380;2023-02-13T00:17:54;141476.28;;;-0.63;100.00
8280;BME280;8335;42.646;23.380;2023-02-13T00:20:21;141465.19;;;-0.67;100.00
8280;BME280;8335;42.646;23.380;2023-02-13T00:22:47;141481.19;;;-0.61;100.00
8280;BME280;8335;42.646;23.380;2023-02-13T00:25:14;141466.41;;;-0.67;100.00
8280;BME280;8335;42.646;23.380;2023-02-13T00:27:41;141478.75;;;-0.62;100.00
8280;BME280;8335;42.646;23.380;2023-02-13T00:30:08;141483.66;;;-0.60;100.00
8280;BME280;8335;42.646;23.380;2023-02-13T00:32:36;141488.56;;;-0.58;100.00
8280;BME280;8335;42.646;23.380;2023-02-13T00:35:03;141487.34;;;-0.58;100.00
8280;BME280;8335;42.646;23.380;2023-02-13T00:37:32;141478.75;;;-0.62;100.00
8280;BME280;8335;42.646;23.380;2023-02-13T00:39:58;141473.81;;;-0.64;100.00
8280;BME280;8335;42.646;23.380;2023-02-13T00:42:25;141500.88;;;-0.52;100.00
8280;BME280;8335;42.646;23.380;2023-02-13T00:44:52;141498.44;;;-0.53;100.00
8280;BME280;8335;42.646;23.380;2023-02-13T00:47:19;141497.19;;;-0.54;100.00
8280;BME280;8335;42.646;23.380;2023-02-13T00:49:47;141504.56;;;-0.51;100.00
8280;BME280;8335;42.646;23.380;2023-02-13T00:52:14;141486.09;;;-0.59;100.00
8280;BME280;8335;42.646;23.380;2023-02-13T00:54:41;141493.53;;;-0.56;100.00
8280;BME280;8335;42.646;23.380;2023-02-13T00:57:08;141502.09;;;-0.52;100.00
8280;BME280;8335;42.646;23.380;2023-02-13T00:59:34;141491.06;;;-0.57;100.00
8280;BME280;8335;42.646;23.380;2023-02-13T01:02:01;141505.78;;;-0.50;100.00
8280;BME280;8335;42.646;23.380;2023-02-13T01:04:28;141493.53;;;-0.56;100.00
8280;BME280;8335;42.646;23.380;2023-02-13T01:06:56;141503.34;;;-0.51;100.00
8280;BME280;8335;42.646;23.380;2023-02-13T01:09:23;141504.56;;;-0.51;100.00
8280;BME280;8335;42.646;23.380;2023-02-13T01:11:50;141491.06;;;-0.57;100.00
8280;BME280;8335;42.646;23.380;2023-02-13T01:14:17;141510.75;;;-0.48;100.00
8280;BME280;8335;42.646;23.380;2023-02-13T01:16:44;141513.22;;;-0.47;100.00
8280;BME280;8335;42.646;23.380;2023-02-13T01:19:11;141500.88;;;-0.52;100.00
8280;BME280;8335;42.646;23.380;2023-02-13T01:21:37;141503.34;;;-0.51;100.00
8280;BME280;8335;42.646;23.380;2023-02-13T01:24:06;141523.03;;;-0.43;100.00
8280;BME280;8335;42.646;23.380;2023-02-13T01:26:33;141526.75;;;-0.42;100.00
8280;BME280;8335;42.646;23.380;2023-02-13T01:28:59;141503.34;;;-0.51;100.00
8280;BME280;8335;42.646;23.380;2023-02-13T01:31:26;141514.44;;;-0.47;100.00
8280;BME280;8335;42.646;23.380;2023-02-13T01:33:55;141513.22;;;-0.47;100.00
8280;BME280;8335;42.646;23.380;2023-02-13T01:36:23;141510.75;;;-0.48;100.00
8280;BME280;8335;42.646;23.380;2023-02-13T01:38:52;141523.03;;;-0.43;100.00
8280;BME280;8335;42.646;23.380;2023-02-13T01:41:22;141503.34;;;-0.51;100.00
8280;BME280;8335;42.646;23.380;2023-02-13T01:43:51;141540.28;;;-0.36;100.00
8280;BME280;8335;42.646;23.380;2023-02-13T01:46:22;141547.69;;;-0.33;100.00
8280;BME280;8335;42.646;23.380;2023-02-13T01:48:52;141548.91;;;-0.33;100.00
8280;BME280;8335;42.646;23.380;2023-02-13T01:51:23;141412.25;;;-0.89;100.00
8280;BME280;8335;42.646;23.380;2023-02-13T01:53:55;141561.25;;;-0.28;100.00
8280;BME280;8335;42.646;23.380;2023-02-13T01:56:28;141563.69;;;-0.26;100.00
8280;BME280;8335;42.646;23.380;2023-02-13T01:58:58;141577.25;;;-0.21;100.00
8280;BME280;8335;42.646;23.380;2023-02-13T02:01:27;141494.75;;;-0.55;100.00
8280;BME280;8335;42.646;23.380;2023-02-13T02:03:56;141567.38;;;-0.25;100.00
8280;BME280;8335;42.646;23.380;2023-02-13T02:06:26;141600.63;;;-0.11;100.00
8280;BME280;8335;42.646;23.380;2023-02-13T02:08:56;141606.78;;;-0.09;100.00
8280;BME280;8335;42.646;23.380;2023-02-13T02:11:31;141615.44;;;-0.05;100.00
8280;BME280;8335;42.646;23.380;2023-02-13T02:14:00;141630.22;;;0.01;100.00
8280;BME280;8335;42.646;23.380;2023-02-13T02:16:28;141644.97;;;0.07;100.00
8280;BME280;8335;42.646;23.380;2023-02-13T02:18:55;141642.50;;;0.06;100.00
8280;BME280;8335;42.646;23.380;2023-02-13T02:21:50;141635.13;;;0.03;100.00
8280;BME280;8335;42.646;23.380;2023-02-13T02:27:52;141653.59;;;0.11;100.00
8280;BME280;8335;42.646;23.380;2023-02-13T02:33:27;141684.41;;;0.23;100.00
8280;BME280;8335;42.646;23.380;2023-02-13T02:36:07;141665.94;;;0.16;100.00
8280;BME280;8335;42.646;23.380;2023-02-13T02:38:49;141690.56;;;0.26;100.00
8280;BME280;8335;42.646;23.380;2023-02-13T02:41:27;141691.78;;;0.26;100.00
8280;BME280;8335;42.646;23.380;2023-02-13T02:44:17;141711.50;;;0.35;100.00
8280;BME280;8335;42.646;23.380;2023-02-13T02:46:57;141631.44;;;0.02;100.00
8280;BME280;8335;42.646;23.380;2023-02-13T02:49:51;141585.84;;;-0.17;100.00
8280;BME280;8335;42.646;23.380;2023-02-13T02:52:33;141737.41;;;0.45;100.00
8280;BME280;8335;42.646;23.380;2023-02-13T02:55:09;141725.06;;;0.40;100.00
8280;BME280;8335;42.646;23.380;2023-02-13T02:57:43;141744.78;;;0.48;100.00
8280;BME280;8335;42.646;23.380;2023-02-13T03:00:31;141749.75;;;0.50;100.00
8280;BME280;8335;42.646;23.380;2023-02-13T03:03:19;141737.41;;;0.45;100.00
8280;BME280;8335;42.646;23.380;2023-02-13T03:06:11;141720.16;;;0.38;100.00
8280;BME280;8335;42.646;23.380;2023-02-13T03:08:42;141677.00;;;0.20;100.00
8280;BME280;8335;42.646;23.380;2023-02-13T03:11:28;141712.72;;;0.35;100.00
8280;BME280;8335;42.646;23.380;2023-02-13T03:14:15;141734.94;;;0.44;100.00
8280;BME280;8335;42.646;23.380;2023-02-13T03:16:43;141743.53;;;0.48;100.00
8280;BME280;8335;42.646;23.380;2023-02-13T03:19:39;141729.97;;;0.42;100.00
8280;BME280;8335;42.646;23.380;2023-02-13T03:22:36;141738.63;;;0.46;100.00
8280;BME280;8335;42.646;23.380;2023-02-13T03:25:14;141752.19;;;0.51;100.00
8280;BME280;8335;42.646;23.380;2023-02-13T03:27:48;141763.25;;;0.56;100.00
8280;BME280;8335;42.646;23.380;2023-02-13T03:30:57;141760.81;;;0.55;100.00
8280;BME280;8335;42.646;23.380;2023-02-13T03:33:36;141757.13;;;0.53;100.00
8280;BME280;8335;42.646;23.380;2023-02-13T03:36:16;141701.66;;;0.31;100.00
8280;BME280;8335;42.646;23.380;2023-02-13T03:39:09;141694.25;;;0.27;100.00
8280;BME280;8335;42.646;23.380;2023-02-13T03:41:39;141758.34;;;0.54;100.00
8280;BME280;8335;42.646;23.380;2023-02-13T03:44:12;141763.25;;;0.56;100.00
8280;BME280;8335;42.646;23.380;2023-02-13T03:46:44;141750.97;;;0.51;100.00
8280;BME280;8335;42.646;23.380;2023-02-13T03:49:19;141757.13;;;0.53;100.00
8280;BME280;8335;42.646;23.380;2023-02-13T03:52:07;141755.88;;;0.53;100.00
8280;BME280;8335;42.646;23.380;2023-02-13T03:54:42;141771.91;;;0.60;100.00
8280;BME280;8335;42.646;23.380;2023-02-13T03:57:31;141768.22;;;0.58;100.00
8280;BME280;8335;42.646;23.380;2023-02-13T04:00:17;141779.28;;;0.63;100.00
8280;BME280;8335;42.646;23.380;2023-02-13T04:02:54;141795.31;;;0.69;100.00
8280;BME280;8335;42.646;23.380;2023-02-13T04:05:25;141802.72;;;0.72;100.00
8280;BME280;8335;42.646;23.380;2023-02-13T04:07:55;141787.94;;;0.66;100.00
8280;BME280;8335;42.646;23.380;2023-02-13T04:10:24;141790.38;;;0.67;100.00
8280;BME280;8335;42.646;23.380;2023-02-13T04:12:59;141799.00;;;0.71;100.00
8280;BME280;8335;42.646;23.380;2023-02-13T04:15:30;141794.06;;;0.69;100.00
8280;BME280;8335;42.646;23.380;2023-02-13T04:18:05;141810.09;;;0.75;100.00
8280;BME280;8335;42.646;23.380;2023-02-13T04:20:34;141733.72;;;0.44;100.00
8280;BME280;8335;42.646;23.380;2023-02-13T04:23:05;141827.38;;;0.82;100.00
8280;BME280;8335;42.646;23.380;2023-02-13T04:25:37;141827.38;;;0.82;100.00
8280;BME280;8335;42.646;23.380;2023-02-13T04:28:04;141827.38;;;0.82;100.00
8280;BME280;8335;42.646;23.380;2023-02-13T04:30:32;141807.66;;;0.74;100.00
8280;BME280;8335;42.646;23.380;2023-02-13T04:32:59;141816.25;;;0.78;100.00
8280;BME280;8335;42.646;23.380;2023-02-13T04:35:25;141808.88;;;0.75;100.00
8280;BME280;8335;42.646;23.380;2023-02-13T04:37:52;141807.66;;;0.74;100.00
8280;BME280;8335;42.646;23.380;2023-02-13T04:40:19;141813.78;;;0.77;100.00
8280;BME280;8335;42.646;23.380;2023-02-13T04:42:48;141799.00;;;0.71;100.00
8280;BME280;8335;42.646;23.380;2023-02-13T04:45:15;141805.19;;;0.73;100.00
8280;BME280;8335;42.646;23.380;2023-02-13T04:47:42;141796.53;;;0.70;100.00
8280;BME280;8335;42.646;23.380;2023-02-13T04:50:15;141829.81;;;0.83;100.00
8280;BME280;8335;42.646;23.380;2023-02-13T04:52:41;141829.81;;;0.83;100.00
8280;BME280;8335;42.646;23.380;2023-02-13T04:55:08;141838.47;;;0.87;100.00
8280;BME280;8335;42.646;23.380;2023-02-13T04:57:35;141845.84;;;0.90;100.00
8280;BME280;8335;42.646;23.380;2023-02-13T05:00:04;141789.16;;;0.67;100.00
8280;BME280;8335;42.646;23.380;2023-02-13T05:02:31;141802.72;;;0.72;100.00
8280;BME280;8335;42.646;23.380;2023-02-13T05:04:58;141765.72;;;0.57;100.00
8280;BME280;8335;42.646;23.380;2023-02-13T05:07:24;141709.03;;;0.34;100.00
8280;BME280;8335;42.646;23.380;2023-02-13T05:09:51;141654.84;;;0.11;100.00
8280;BME280;8335;42.646;23.380;2023-02-13T05:12:18;141616.66;;;-0.05;100.00
8280;BME280;8335;42.646;23.380;2023-02-13T05:14:45;141588.31;;;-0.16;100.00
8280;BME280;8335;42.646;23.380;2023-02-13T05:17:13;141562.47;;;-0.27;100.00
8280;BME280;8335;42.646;23.380;2023-02-13T05:19:39;141569.84;;;-0.24;100.00
8280;BME280;8335;42.646;23.380;2023-02-13T05:22:07;141550.16;;;-0.32;100.00
8280;BME280;8335;42.646;23.380;2023-02-13T05:24:52;141523.03;;;-0.43;100.00
8280;BME280;8335;42.646;23.380;2023-02-13T05:27:19;141500.88;;;-0.52;100.00
8280;BME280;8335;42.646;23.380;2023-02-13T05:29:45;141488.56;;;-0.58;100.00
8280;BME280;8335;42.646;23.380;2023-02-13T05:32:13;141467.63;;;-0.66;100.00
8280;BME280;8335;42.646;23.380;2023-02-13T05:34:39;141447.94;;;-0.74;100.00
8280;BME280;8335;42.646;23.380;2023-02-13T05:37:06;141459.03;;;-0.70;100.00
8280;BME280;8335;42.646;23.380;2023-02-13T05:39:33;141473.81;;;-0.64;100.00
8280;BME280;8335;42.646;23.380;2023-02-13T05:41:59;141497.19;;;-0.54;100.00
8280;BME280;8335;42.646;23.380;2023-02-13T05:44:29;141528.00;;;-0.41;100.00
8280;BME280;8335;42.646;23.380;2023-02-13T05:46:55;141525.53;;;-0.42;100.00
8280;BME280;8335;42.646;23.380;2023-02-13T05:49:24;141525.53;;;-0.42;100.00
8280;BME280;8335;42.646;23.380;2023-02-13T05:51:50;141539.03;;;-0.37;100.00
8280;BME280;8335;42.646;23.380;2023-02-13T05:54:17;141546.47;;;-0.34;100.00
8280;BME280;8335;42.646;23.380;2023-02-13T05:56:45;141563.69;;;-0.26;100.00
8280;BME280;8335;42.646;23.380;2023-02-13T05:59:11;141576.03;;;-0.21;100.00
8280;BME280;8335;42.646;23.380;2023-02-13T06:01:38;141604.31;;;-0.10;100.00
8280;BME280;8335;42.646;23.380;2023-02-13T06:04:05;141619.13;;;-0.04;100.00
8280;BME280;8335;42.646;23.380;2023-02-13T06:06:33;141630.22;;;0.01;100.00
8280;BME280;8335;42.646;23.380;2023-02-13T06:09:00;141649.94;;;0.09;100.00
8280;BME280;8335;42.646;23.380;2023-02-13T06:11:27;141667.16;;;0.16;99.92
8280;BME280;8335;42.646;23.380;2023-02-13T06:13:54;141684.41;;;0.23;100.00
8280;BME280;8335;42.646;23.380;2023-02-13T06:16:21;141706.59;;;0.33;99.91
8280;BME280;8335;42.646;23.380;2023-02-13T06:18:47;141690.56;;;0.26;99.68
8280;BME280;8335;42.646;23.380;2023-02-13T06:21:14;141715.22;;;0.36;98.67
8280;BME280;8335;42.646;23.380;2023-02-13T06:23:42;141774.38;;;0.61;98.49
8280;BME280;8335;42.646;23.380;2023-02-13T06:26:09;141790.38;;;0.67;97.86
8280;BME280;8335;42.646;23.380;2023-02-13T06:28:36;141795.31;;;0.69;97.04
8280;BME280;8335;42.646;23.380;2023-02-13T06:31:03;141794.06;;;0.69;96.83
8280;BME280;8335;42.646;23.380;2023-02-13T06:33:30;141799.00;;;0.71;96.97
8280;BME280;8335;42.646;23.380;2023-02-13T06:35:57;141782.97;;;0.64;97.38
8280;BME280;8335;42.646;23.380;2023-02-13T06:38:23;141778.06;;;0.62;97.58
8280;BME280;8335;42.646;23.380;2023-02-13T06:40:52;141794.06;;;0.69;97.63
8280;BME280;8335;42.646;23.380;2023-02-13T06:43:18;141806.41;;;0.74;98.15
8280;BME280;8335;42.646;23.380;2023-02-13T06:45:45;141812.56;;;0.76;97.22
8280;BME280;8335;42.646;23.380;2023-02-13T06:48:12;141820.00;;;0.79;97.09
8280;BME280;8335;42.646;23.380;2023-02-13T06:50:39;141816.25;;;0.78;97.04
8280;BME280;8335;42.646;23.380;2023-02-13T06:53:06;141822.44;;;0.80;96.40
8280;BME280;8335;42.646;23.380;2023-02-13T06:55:33;141817.47;;;0.78;97.45
8280;BME280;8335;42.646;23.380;2023-02-13T06:58:01;141845.84;;;0.90;97.89
8280;BME280;8335;42.646;23.380;2023-02-13T07:00:28;141864.34;;;0.98;97.62
8280;BME280;8335;42.646;23.380;2023-02-13T07:03:00;141871.78;;;1.01;97.17
8280;BME280;8335;42.646;23.380;2023-02-13T07:05:27;141891.50;;;1.09;96.29
8280;BME280;8335;42.646;23.380;2023-02-13T07:07:54;141917.38;;;1.20;96.07
8280;BME280;8335;42.646;23.380;2023-02-13T07:10:21;141942.06;;;1.30;94.92
8280;BME280;8335;42.646;23.380;2023-02-13T07:12:47;141956.84;;;1.36;95.17
8280;BME280;8335;42.646;23.380;2023-02-13T07:15:16;141966.69;;;1.40;95.07
8280;BME280;8335;42.646;23.380;2023-02-13T07:17:42;141972.84;;;1.43;94.57
8280;BME280;8335;42.646;23.380;2023-02-13T07:20:10;141967.94;;;1.41;94.41
8280;BME280;8335;42.646;23.380;2023-02-13T07:22:37;141981.50;;;1.46;95.49
8280;BME280;8335;42.646;23.380;2023-02-13T07:25:05;142012.34;;;1.59;94.92
8280;BME280;8335;42.646;23.380;2023-02-13T07:27:32;142033.31;;;1.68;93.68
8280;BME280;8335;42.646;23.380;2023-02-13T07:29:58;142064.16;;;1.80;93.99
8280;BME280;8335;42.646;23.380;2023-02-13T07:32:26;142099.94;;;1.95;93.94
8280;BME280;8335;42.646;23.380;2023-02-13T07:34:53;142140.66;;;2.12;93.56
8280;BME280;8335;42.646;23.380;2023-02-13T07:37:20;142180.13;;;2.28;93.37
8280;BME280;8335;42.646;23.380;2023-02-13T07:39:47;142213.47;;;2.42;92.85
8280;BME280;8335;42.646;23.380;2023-02-13T07:42:13;142250.56;;;2.57;93.30
8280;BME280;8335;42.646;23.380;2023-02-13T07:44:40;142264.09;;;2.63;91.81
8280;BME280;8335;42.646;23.380;2023-02-13T07:47:07;142257.94;;;2.60;91.82
8280;BME280;8335;42.646;23.380;2023-02-13T07:49:35;142254.25;;;2.59;91.94
8280;BME280;8335;42.646;23.380;2023-02-13T07:52:02;142266.56;;;2.64;92.47
8280;BME280;8335;42.646;23.380;2023-02-13T07:54:29;142277.69;;;2.68;91.23
8280;BME280;8335;42.646;23.380;2023-02-13T07:56:57;142286.34;;;2.72;90.90
8280;BME280;8335;42.646;23.380;2023-02-13T07:59:23;142272.75;;;2.66;91.63
8280;BME280;8335;42.646;23.380;2023-02-13T08:01:50;142302.38;;;2.79;91.31
8280;BME280;8335;42.646;23.380;2023-02-13T08:04:17;142336.94;;;2.93;90.55
8280;BME280;8335;42.646;23.380;2023-02-13T08:06:45;142355.53;;;3.00;90.61
8280;BME280;8335;42.646;23.380;2023-02-13T08:09:18;142364.16;;;3.04;89.65
8280;BME280;8335;42.646;23.380;2023-02-13T08:12:03;142382.66;;;3.12;89.49
8280;BME280;8335;42.646;23.380;2023-02-13T08:14:30;142377.75;;;3.10;90.54
8280;BME280;8335;42.646;23.380;2023-02-13T08:16:58;142364.16;;;3.04;89.79
8280;BME280;8335;42.646;23.380;2023-02-13T08:19:26;142357.97;;;3.01;89.08
8280;BME280;8335;42.646;23.380;2023-02-13T08:21:54;142339.47;;;2.94;89.38
8280;BME280;8335;42.646;23.380;2023-02-13T08:24:21;142339.47;;;2.94;89.85
8280;BME280;8335;42.646;23.380;2023-02-13T08:26:51;142366.59;;;3.05;90.06
8280;BME280;8335;42.646;23.380;2023-02-13T08:29:17;142372.81;;;3.08;89.92
8280;BME280;8335;42.646;23.380;2023-02-13T08:31:44;142398.72;;;3.18;89.04
8280;BME280;8335;42.646;23.380;2023-02-13T08:34:11;142390.09;;;3.15;88.34
8280;BME280;8335;42.646;23.380;2023-02-13T08:36:38;142458.00;;;3.43;88.03
8280;BME280;8335;42.646;23.380;2023-02-13T08:39:08;142477.81;;;3.51;88.11
8280;BME280;8335;42.646;23.380;2023-02-13T08:41:35;142485.22;;;3.54;87.52
8280;BME280;8335;42.646;23.380;2023-02-13T08:44:01;142521.06;;;3.69;86.86
8280;BME280;8335;42.646;23.380;2023-02-13T08:46:28;142516.13;;;3.67;86.22
8280;BME280;8335;42.646;23.380;2023-02-13T08:48:55;142518.59;;;3.68;86.10
8280;BME280;8335;42.646;23.380;2023-02-13T08:51:22;142509.91;;;3.64;86.46
8280;BME280;8335;42.646;23.380;2023-02-13T08:53:49;142522.28;;;3.69;86.50
8280;BME280;8335;42.646;23.380;2023-02-13T08:56:17;142498.81;;;3.59;87.17
8280;BME280;8335;42.646;23.380;2023-02-13T08:58:47;142495.13;;;3.58;87.23
8280;BME280;8335;42.646;23.380;2023-02-13T09:01:14;142481.53;;;3.52;87.56
8280;BME280;8335;42.646;23.380;2023-02-13T09:03:40;142475.31;;;3.50;86.86
8280;BME280;8335;42.646;23.380;2023-02-13T09:06:07;142519.81;;;3.68;87.04
8280;BME280;8335;42.646;23.380;2023-02-13T09:08:34;142486.44;;;3.54;86.39
8280;BME280;8335;42.646;23.380;2023-02-13T09:11:03;142548.25;;;3.80;85.93
8280;BME280;8335;42.646;23.380;2023-02-13T09:13:33;142595.19;;;3.99;85.67
8280;BME280;8335;42.646;23.380;2023-02-13T09:16:02;142624.88;;;4.11;84.87
8280;BME280;8335;42.646;23.380;2023-02-13T09:18:30;142624.88;;;4.11;84.08
8280;BME280;8335;42.646;23.380;2023-02-13T09:20:58;142647.13;;;4.21;84.39
8280;BME280;8335;42.646;23.380;2023-02-13T09:23:25;142673.13;;;4.31;83.36
8280;BME280;8335;42.646;23.380;2023-02-13T09:25:52;142718.91;;;4.50;83.48
8280;BME280;8335;42.646;23.380;2023-02-13T09:28:19;142757.22;;;4.66;82.86
8280;BME280;8335;42.646;23.380;2023-02-13T09:30:47;142756.00;;;4.65;82.88
8280;BME280;8335;42.646;23.380;2023-02-13T09:33:14;142711.44;;;4.47;81.76
8280;BME280;8335;42.646;23.380;2023-02-13T09:35:41;142749.78;;;4.63;81.82
8280;BME280;8335;42.646;23.380;2023-02-13T09:38:09;142757.22;;;4.66;82.14
8280;BME280;8335;42.646;23.380;2023-02-13T09:40:40;142825.28;;;4.94;80.90
8280;BME280;8335;42.646;23.380;2023-02-13T09:43:13;142867.31;;;5.11;80.26
8280;BME280;8335;42.646;23.380;2023-02-13T09:45:42;142898.25;;;5.24;79.75
8280;BME280;8335;42.646;23.380;2023-02-13T09:48:17;142952.72;;;5.46;79.11
8280;BME280;8335;42.646;23.380;2023-02-13T09:50:44;142972.50;;;5.55;77.97
8280;BME280;8335;42.646;23.380;2023-02-13T09:53:19;142996.03;;;5.64;76.95
8280;BME280;8335;42.646;23.380;2023-02-13T09:55:53;143014.63;;;5.72;77.00
8280;BME280;8335;42.646;23.380;2023-02-13T09:58:36;143057.94;;;5.90;77.18
8280;BME280;8335;42.646;23.380;2023-02-13T10:01:17;143127.34;;;6.18;75.46
8280;BME280;8335;42.646;23.380;2023-02-13T10:03:53;143106.31;;;6.10;74.35
8280;BME280;8335;42.646;23.380;2023-02-13T10:06:27;143238.81;;;6.64;74.54
8280;BME280;8335;42.646;23.380;2023-02-13T10:09:07;143320.63;;;6.98;72.07
8280;BME280;8335;42.646;23.380;2023-02-13T10:11:53;143356.56;;;7.12;70.44
8280;BME280;8335;42.646;23.380;2023-02-13T10:14:26;143340.44;;;7.06;69.42
8280;BME280;8335;42.646;23.380;2023-02-13T10:16:57;143335.50;;;7.04;69.92
8280;BME280;8335;42.646;23.380;2023-02-13T10:19:33;143340.44;;;7.06;70.03
8280;BME280;8335;42.646;23.380;2023-02-13T10:22:04;143484.28;;;7.65;68.26
8280;BME280;8335;42.646;23.380;2023-02-13T10:24:36;143639.31;;;8.28;64.62
8280;BME280;8335;42.646;23.380;2023-02-13T10:27:18;143670.38;;;8.41;63.68
8280;BME280;8335;42.646;23.380;2023-02-13T10:29:50;143641.84;;;8.30;62.96
8280;BME280;8335;42.646;23.380;2023-02-13T10:32:42;143603.34;;;8.14;64.06
8280;BME280;8335;42.646;23.380;2023-02-13T10:35:20;143640.59;;;8.29;63.89
8280;BME280;8335;42.646;23.380;2023-02-13T10:37:50;143646.78;;;8.32;62.91
8280;BME280;8335;42.646;23.380;2023-02-13T10:40:18;143878.94;;;9.27;60.38
8280;BME280;8335;42.646;23.380;2023-02-13T10:42:49;143931.09;;;9.48;58.63
8280;BME280;8335;42.646;23.380;2023-02-13T10:45:38;143954.72;;;9.58;57.88
8280;BME280;8335;42.646;23.380;2023-02-13T10:48:17;144045.41;;;9.95;56.58
8280;BME280;8335;42.646;23.380;2023-02-13T10:50:55;144112.56;;;10.23;54.70
8280;BME280;8335;42.646;23.380;2023-02-13T10:53:34;144066.50;;;10.04;55.31
8280;BME280;8335;42.646;23.380;2023-02-13T10:56:14;144151.06;;;10.38;54.85
8280;BME280;8335;42.646;23.380;2023-02-13T10:58:53;144168.47;;;10.45;53.10
8280;BME280;8335;42.646;23.380;2023-02-13T11:01:29;144129.97;;;10.30;54.16
8280;BME280;8335;42.646;23.380;2023-02-13T11:04:04;144113.78;;;10.23;53.73
8280;BME280;8335;42.646;23.380;2023-02-13T11:06:35;143979.53;;;9.68;54.20
8280;BME280;8335;42.646;23.380;2023-02-13T11:09:04;144147.34;;;10.37;53.98
8280;BME280;8335;42.646;23.380;2023-02-13T11:11:34;144189.59;;;10.54;53.56
8280;BME280;8335;42.646;23.380;2023-02-13T11:14:14;144265.41;;;10.85;52.89
8280;BME280;8335;42.646;23.380;2023-02-13T11:16:50;144282.81;;;10.92;52.15
8280;BME280;8335;42.646;23.380;2023-02-13T11:19:21;144267.94;;;10.86;52.26
8280;BME280;8335;42.646;23.380;2023-02-13T11:21:55;144325.13;;;11.10;51.89
8280;BME280;8335;42.646;23.380;2023-02-13T11:24:24;144355.00;;;11.22;50.57
8280;BME280;8335;42.646;23.380;2023-02-13T11:26:56;144364.91;;;11.26;50.10
8280;BME280;8335;42.646;23.380;2023-02-13T11:29:26;144238.09;;;10.74;50.49
8280;BME280;8335;42.646;23.380;2023-02-13T11:34:49;144049.13;;;9.97;52.89
8280;BME280;8335;42.646;23.380;2023-02-13T11:37:23;144014.31;;;9.82;53.21
8280;BME280;8335;42.646;23.380;2023-02-13T11:39:52;143959.69;;;9.60;53.65
8280;BME280;8335;42.646;23.380;2023-02-13T11:42:23;144015.56;;;9.83;53.76
8280;BME280;8335;42.646;23.380;2023-02-13T11:44:53;144028.00;;;9.88;53.53
8280;BME280;8335;42.646;23.380;2023-02-13T11:47:30;144019.28;;;9.84;53.27
8280;BME280;8335;42.646;23.380;2023-02-13T11:49:58;144035.44;;;9.91;52.08
8280;BME280;8335;42.646;23.380;2023-02-13T11:52:28;143989.50;;;9.72;52.94
8280;BME280;8335;42.646;23.380;2023-02-13T11:54:58;143948.47;;;9.55;52.94
8280;BME280;8335;42.646;23.380;2023-02-13T11:57:29;143947.25;;;9.55;52.94
8280;BME280;8335;42.646;23.380;2023-02-13T11:59:57;143962.16;;;9.61;52.18
8280;BME280;8335;42.646;23.380;2023-02-13T12:02:25;144003.13;;;9.78;52.52
8280;BME280;8335;42.646;23.380;2023-02-13T12:04:54;144004.38;;;9.78;52.85
8280;BME280;8335;42.646;23.380;2023-02-13T12:07:43;144000.66;;;9.77;52.55
8280;BME280;8335;42.646;23.380;2023-02-13T12:10:20;143973.34;;;9.65;52.50
8280;BME280;8335;42.646;23.380;2023-02-13T12:12:53;143921.19;;;9.44;53.52
8280;BME280;8335;42.646;23.380;2023-02-13T12:15:22;143912.47;;;9.41;51.89
8280;BME280;8335;42.646;23.380;2023-02-13T12:17:58;143813.13;;;9.00;53.25
8280;BME280;8335;42.646;23.380;2023-02-13T12:20:35;143764.75;;;8.80;54.05
8280;BME280;8335;42.646;23.380;2023-02-13T12:23:16;143752.31;;;8.75;55.03
8280;BME280;8335;42.646;23.380;2023-02-13T12:28:45;143738.66;;;8.69;55.78
8280;BME280;8335;42.646;23.380;2023-02-13T12:31:38;143754.78;;;8.76;55.29
8280;BME280;8335;42.646;23.380;2023-02-13T12:34:28;143767.22;;;8.81;54.09
8280;BME280;8335;42.646;23.380;2023-02-13T12:37:15;143756.03;;;8.76;53.89
8280;BME280;8335;42.646;23.380;2023-02-13T12:39:52;143768.47;;;8.81;54.57
8280;BME280;8335;42.646;23.380;2023-02-13T12:42:33;143749.84;;;8.74;53.87
8280;BME280;8335;42.646;23.380;2023-02-13T12:45:25;143636.84;;;8.27;54.61
8280;BME280;8335;42.646;23.380;2023-02-13T12:48:03;143618.22;;;8.20;56.29
8280;BME280;8335;42.646;23.380;2023-02-13T12:51:00;143582.25;;;8.05;54.40
8280;BME280;8335;42.646;23.380;2023-02-13T12:53:47;143551.22;;;7.92;56.03
8280;BME280;8335;42.646;23.380;2023-02-13T12:56:32;143516.50;;;7.78;55.30
8280;BME280;8335;42.646;23.380;2023-02-13T12:59:08;143500.44;;;7.71;54.97
8280;BME280;8335;42.646;23.380;2023-02-13T13:04:41;143505.38;;;7.73;55.97
8280;BME280;8335;42.646;23.380;2023-02-13T13:07:42;143520.25;;;7.80;54.26
8280;BME280;8335;42.646;23.380;2023-02-13T13:10:26;143547.53;;;7.91;54.20
8280;BME280;8335;42.646;23.380;2023-02-13T13:13:02;143551.22;;;7.92;54.33
8280;BME280;8335;42.646;23.380;2023-02-13T13:15:34;143558.69;;;7.95;53.88
8280;BME280;8335;42.646;23.380;2023-02-13T13:18:17;143566.13;;;7.98;54.03
8280;BME280;8335;42.646;23.380;2023-02-13T13:20:53;143422.28;;;7.39;53.40
8280;BME280;8335;42.646;23.380;2023-02-13T13:23:26;143532.63;;;7.85;53.95
8280;BME280;8335;42.646;23.380;2023-02-13T13:26:00;143523.97;;;7.81;53.79
8280;BME280;8335;42.646;23.380;2023-02-13T13:28:33;143494.19;;;7.69;54.91
8280;BME280;8335;42.646;23.380;2023-02-13T13:31:03;143488.00;;;7.66;55.00
8280;BME280;8335;42.646;23.380;2023-02-13T13:33:32;143329.31;;;7.01;54.97
8280;BME280;8335;42.646;23.380;2023-02-13T13:36:04;143458.22;;;7.54;54.45
8280;BME280;8335;42.646;23.380;2023-02-13T13:38:41;143350.38;;;7.10;55.06
8280;BME280;8335;42.646;23.380;2023-02-13T13:41:14;143429.69;;;7.42;55.77